sensor_id;sensor_type;location;lat;lon;timestamp;P1;durP1;ratioP1;P2;durP2;ratioP2
4674;SDS011;2351;50.812;12.872;2022-09-14T00:00:43;6.03;;;4.03;;
4674;SDS011;2351;50.812;12.872;2022-09-14T00:03:15;4.33;;;3.70;;
4674;SDS011;2351;50.812;12.872;2022-09-14T00:05:47;5.13;;;3.60;;
4674;SDS011;2351;50.812;12.872;2022-09-14T00:08:19;6.67;;;4.53;;
4674;SDS011;2351;50.812;12.872;2022-09-14T00:10:52;4.20;;;3.30;;
4674;SDS011;2351;50.812;12.872;2022-09-14T00:13:23;5.10;;;3.70;;
4674;SDS011;2351;50.812;12.872;2022-09-14T00:15:55;6.00;;;3.60;;
4674;SDS011;2351;50.812;12.872;2022-09-14T00:18:26;8.83;;;3.90;;
4674;SDS011;2351;50.812;12.872;2022-09-14T00:20:59;8.03;;;4.20;;
4674;SDS011;2351;50.812;12.872;2022-09-14T00:23:32;7.30;;;4.20;;
4674;SDS011;2351;50.812;12.872;2022-09-14T00:26:07;5.30;;;4.07;;
4674;SDS011;2351;50.812;12.872;2022-09-14T00:28:41;5.03;;;4.27;;
4674;SDS011;2351;50.812;12.872;2022-09-14T00:31:15;6.50;;;4.00;;
4674;SDS011;2351;50.812;12.872;2022-09-14T00:33:48;5.60;;;3.93;;
4674;SDS011;2351;50.812;12.872;2022-09-14T00:36:21;5.60;;;4.30;;
4674;SDS011;2351;50.812;12.872;2022-09-14T00:38:54;4.70;;;3.87;;
4674;SDS011;2351;50.812;12.872;2022-09-14T00:41:28;6.50;;;4.00;;
4674;SDS011;2351;50.812;12.872;2022-09-14T00:44:03;4.80;;;3.80;;
4674;SDS011;2351;50.812;12.872;2022-09-14T00:46:38;6.40;;;4.70;;
4674;SDS011;2351;50.812;12.872;2022-09-14T00:49:12;5.17;;;3.90;;
4674;SDS011;2351;50.812;12.872;2022-09-14T00:51:48;6.67;;;4.17;;
4674;SDS011;2351;50.812;12.872;2022-09-14T00:54:24;5.10;;;4.03;;
4674;SDS011;2351;50.812;12.872;2022-09-14T00:56:58;5.53;;;4.20;;
4674;SDS011;2351;50.812;12.872;2022-09-14T00:59:34;5.33;;;4.50;;
4674;SDS011;2351;50.812;12.872;2022-09-14T01:02:07;17.13;;;4.83;;
4674;SDS011;2351;50.812;12.872;2022-09-14T01:04:41;7.97;;;4.47;;
4674;SDS011;2351;50.812;12.872;2022-09-14T01:07:16;6.10;;;4.70;;
4674;SDS011;2351;50.812;12.872;2022-09-14T01:10:15;7.70;;;5.10;;
4674;SDS011;2351;50.812;12.872;2022-09-14T01:13:00;4.80;;;3.87;;
4674;SDS011;2351;50.812;12.872;2022-09-14T01:15:43;5.67;;;4.37;;
4674;SDS011;2351;50.812;12.872;2022-09-14T01:18:26;5.60;;;4.53;;
4674;SDS011;2351;50.812;12.872;2022-09-14T01:21:00;7.83;;;5.27;;
4674;SDS011;2351;50.812;12.872;2022-09-14T01:23:36;5.93;;;4.77;;
4674;SDS011;2351;50.812;12.872;2022-09-14T01:26:28;7.13;;;4.23;;
4674;SDS011;2351;50.812;12.872;2022-09-14T01:29:24;6.27;;;3.70;;
4674;SDS011;2351;50.812;12.872;2022-09-14T01:32:01;9.13;;;3.87;;
4674;SDS011;2351;50.812;12.872;2022-09-14T01:34:39;9.10;;;4.60;;
4674;SDS011;2351;50.812;12.872;2022-09-14T01:37:17;5.63;;;4.00;;
4674;SDS011;2351;50.812;12.872;2022-09-14T01:39:53;5.97;;;4.23;;
4674;SDS011;2351;50.812;12.872;2022-09-14T01:42:29;6.40;;;4.67;;
4674;SDS011;2351;50.812;12.872;2022-09-14T01:45:07;5.40;;;3.93;;
4674;SDS011;2351;50.812;12.872;2022-09-14T01:47:43;4.07;;;3.67;;
4674;SDS011;2351;50.812;12.872;2022-09-14T01:50:19;8.20;;;4.47;;
4674;SDS011;2351;50.812;12.872;2022-09-14T01:52:56;6.50;;;4.00;;
4674;SDS011;2351;50.812;12.872;2022-09-14T01:55:31;12.30;;;4.80;;
4674;SDS011;2351;50.812;12.872;2022-09-14T01:58:08;9.57;;;4.17;;
4674;SDS011;2351;50.812;12.872;2022-09-14T02:00:44;6.93;;;4.93;;
4674;SDS011;2351;50.812;12.872;2022-09-14T02:03:17;5.70;;;4.47;;
4674;SDS011;2351;50.812;12.872;2022-09-14T02:05:53;7.13;;;4.53;;
4674;SDS011;2351;50.812;12.872;2022-09-14T02:08:29;7.00;;;4.90;;
4674;SDS011;2351;50.812;12.872;2022-09-14T02:11:02;8.30;;;5.50;;
4674;SDS011;2351;50.812;12.872;2022-09-14T02:13:33;10.13;;;5.87;;
4674;SDS011;2351;50.812;12.872;2022-09-14T02:16:06;10.87;;;5.90;;
4674;SDS011;2351;50.812;12.872;2022-09-14T02:18:38;8.37;;;5.20;;
4674;SDS011;2351;50.812;12.872;2022-09-14T02:21:13;12.47;;;5.70;;
4674;SDS011;2351;50.812;12.872;2022-09-14T02:23:48;9.90;;;5.80;;
4674;SDS011;2351;50.812;12.872;2022-09-14T02:26:27;10.70;;;6.93;;
4674;SDS011;2351;50.812;12.872;2022-09-14T02:28:59;7.80;;;5.47;;
4674;SDS011;2351;50.812;12.872;2022-09-14T02:31:35;7.80;;;5.07;;
4674;SDS011;2351;50.812;12.872;2022-09-14T02:34:19;9.13;;;6.03;;
4674;SDS011;2351;50.812;12.872;2022-09-14T02:36:59;7.93;;;5.20;;
4674;SDS011;2351;50.812;12.872;2022-09-14T02:39:37;7.70;;;5.50;;
4674;SDS011;2351;50.812;12.872;2022-09-14T02:42:18;6.57;;;4.97;;
4674;SDS011;2351;50.812;12.872;2022-09-14T02:44:58;9.17;;;5.90;;
4674;SDS011;2351;50.812;12.872;2022-09-14T02:47:37;10.33;;;6.13;;
4674;SDS011;2351;50.812;12.872;2022-09-14T02:50:19;6.00;;;5.00;;
4674;SDS011;2351;50.812;12.872;2022-09-14T02:52:58;8.50;;;5.33;;
4674;SDS011;2351;50.812;12.872;2022-09-14T02:55:36;6.10;;;4.83;;
4674;SDS011;2351;50.812;12.872;2022-09-14T02:58:12;6.17;;;4.70;;
4674;SDS011;2351;50.812;12.872;2022-09-14T03:00:45;11.03;;;5.40;;
4674;SDS011;2351;50.812;12.872;2022-09-14T03:03:20;8.33;;;4.97;;
4674;SDS011;2351;50.812;12.872;2022-09-14T03:05:52;6.47;;;4.90;;
4674;SDS011;2351;50.812;12.872;2022-09-14T03:08:26;5.10;;;4.60;;
4674;SDS011;2351;50.812;12.872;2022-09-14T03:10:58;5.87;;;4.57;;
4674;SDS011;2351;50.812;12.872;2022-09-14T03:13:29;7.13;;;5.20;;
4674;SDS011;2351;50.812;12.872;2022-09-14T03:16:04;11.87;;;5.00;;
4674;SDS011;2351;50.812;12.872;2022-09-14T03:18:39;7.70;;;5.67;;
4674;SDS011;2351;50.812;12.872;2022-09-14T03:21:11;6.03;;;4.90;;
4674;SDS011;2351;50.812;12.872;2022-09-14T03:23:44;7.47;;;4.70;;
4674;SDS011;2351;50.812;12.872;2022-09-14T03:26:17;7.77;;;5.10;;
4674;SDS011;2351;50.812;12.872;2022-09-14T03:28:50;7.47;;;4.90;;
4674;SDS011;2351;50.812;12.872;2022-09-14T03:31:23;9.20;;;4.67;;
4674;SDS011;2351;50.812;12.872;2022-09-14T03:33:58;5.30;;;4.27;;
4674;SDS011;2351;50.812;12.872;2022-09-14T03:36:30;6.60;;;4.73;;
4674;SDS011;2351;50.812;12.872;2022-09-14T03:39:02;5.80;;;4.70;;
4674;SDS011;2351;50.812;12.872;2022-09-14T03:41:34;7.67;;;5.70;;
4674;SDS011;2351;50.812;12.872;2022-09-14T03:44:05;7.87;;;5.33;;
4674;SDS011;2351;50.812;12.872;2022-09-14T03:46:37;9.47;;;6.00;;
4674;SDS011;2351;50.812;12.872;2022-09-14T03:49:10;11.60;;;5.17;;
4674;SDS011;2351;50.812;12.872;2022-09-14T03:51:41;5.27;;;4.40;;
4674;SDS011;2351;50.812;12.872;2022-09-14T03:54:13;6.87;;;4.23;;
4674;SDS011;2351;50.812;12.872;2022-09-14T03:56:44;7.40;;;4.87;;
4674;SDS011;2351;50.812;12.872;2022-09-14T03:59:16;6.90;;;4.60;;
4674;SDS011;2351;50.812;12.872;2022-09-14T04:01:47;6.40;;;4.97;;
4674;SDS011;2351;50.812;12.872;2022-09-14T04:04:20;6.27;;;4.90;;
4674;SDS011;2351;50.812;12.872;2022-09-14T04:06:52;7.37;;;4.60;;
4674;SDS011;2351;50.812;12.872;2022-09-14T04:09:23;6.10;;;4.33;;
4674;SDS011;2351;50.812;12.872;2022-09-14T04:11:55;7.90;;;5.57;;
4674;SDS011;2351;50.812;12.872;2022-09-14T04:14:26;6.53;;;4.90;;
4674;SDS011;2351;50.812;12.872;2022-09-14T04:16:58;7.27;;;4.67;;
4674;SDS011;2351;50.812;12.872;2022-09-14T04:22:06;8.10;;;5.13;;
4674;SDS011;2351;50.812;12.872;2022-09-14T04:24:38;5.87;;;4.00;;
4674;SDS011;2351;50.812;12.872;2022-09-14T04:27:09;8.17;;;5.60;;
4674;SDS011;2351;50.812;12.872;2022-09-14T04:29:41;8.30;;;5.80;;
4674;SDS011;2351;50.812;12.872;2022-09-14T04:32:13;9.33;;;5.67;;
4674;SDS011;2351;50.812;12.872;2022-09-14T04:34:46;9.43;;;5.73;;
4674;SDS011;2351;50.812;12.872;2022-09-14T04:37:18;6.70;;;5.00;;
4674;SDS011;2351;50.812;12.872;2022-09-14T04:39:50;9.17;;;5.73;;
4674;SDS011;2351;50.812;12.872;2022-09-14T04:42:21;8.00;;;5.20;;
4674;SDS011;2351;50.812;12.872;2022-09-14T04:44:53;7.80;;;5.33;;
4674;SDS011;2351;50.812;12.872;2022-09-14T04:47:24;7.27;;;4.87;;
4674;SDS011;2351;50.812;12.872;2022-09-14T04:49:57;7.17;;;5.20;;
4674;SDS011;2351;50.812;12.872;2022-09-14T04:52:29;12.27;;;6.10;;
4674;SDS011;2351;50.812;12.872;2022-09-14T04:55:00;9.17;;;6.20;;
4674;SDS011;2351;50.812;12.872;2022-09-14T04:57:32;6.87;;;5.23;;
4674;SDS011;2351;50.812;12.872;2022-09-14T05:00:03;8.73;;;5.83;;
4674;SDS011;2351;50.812;12.872;2022-09-14T05:02:39;10.47;;;6.10;;
4674;SDS011;2351;50.812;12.872;2022-09-14T05:05:12;10.23;;;6.10;;
4674;SDS011;2351;50.812;12.872;2022-09-14T05:07:44;10.83;;;6.20;;
4674;SDS011;2351;50.812;12.872;2022-09-14T05:10:16;8.57;;;5.80;;
4674;SDS011;2351;50.812;12.872;2022-09-14T05:12:48;8.73;;;5.07;;
4674;SDS011;2351;50.812;12.872;2022-09-14T05:15:20;9.40;;;6.50;;
4674;SDS011;2351;50.812;12.872;2022-09-14T05:17:51;8.33;;;5.53;;
4674;SDS011;2351;50.812;12.872;2022-09-14T05:20:24;15.87;;;11.50;;
4674;SDS011;2351;50.812;12.872;2022-09-14T05:22:55;12.30;;;9.40;;
4674;SDS011;2351;50.812;12.872;2022-09-14T05:25:27;11.50;;;8.27;;
4674;SDS011;2351;50.812;12.872;2022-09-14T05:27:58;13.57;;;8.80;;
4674;SDS011;2351;50.812;12.872;2022-09-14T05:30:30;9.70;;;7.80;;
4674;SDS011;2351;50.812;12.872;2022-09-14T05:33:02;10.87;;;7.30;;
4674;SDS011;2351;50.812;12.872;2022-09-14T05:35:34;12.27;;;7.20;;
4674;SDS011;2351;50.812;12.872;2022-09-14T05:38:06;9.73;;;6.37;;
4674;SDS011;2351;50.812;12.872;2022-09-14T05:40:37;10.37;;;6.43;;
4674;SDS011;2351;50.812;12.872;2022-09-14T05:43:09;9.07;;;5.63;;
4674;SDS011;2351;50.812;12.872;2022-09-14T05:45:40;11.90;;;6.17;;
4674;SDS011;2351;50.812;12.872;2022-09-14T05:48:12;9.07;;;6.40;;
4674;SDS011;2351;50.812;12.872;2022-09-14T05:50:45;9.20;;;6.13;;
4674;SDS011;2351;50.812;12.872;2022-09-14T05:53:17;13.00;;;5.80;;
4674;SDS011;2351;50.812;12.872;2022-09-14T05:55:48;9.83;;;6.00;;
4674;SDS011;2351;50.812;12.872;2022-09-14T05:58:29;7.33;;;5.67;;
4674;SDS011;2351;50.812;12.872;2022-09-14T06:01:05;8.70;;;5.50;;
4674;SDS011;2351;50.812;12.872;2022-09-14T06:03:38;8.20;;;5.97;;
4674;SDS011;2351;50.812;12.872;2022-09-14T06:06:11;10.10;;;6.00;;
4674;SDS011;2351;50.812;12.872;2022-09-14T06:08:44;9.50;;;6.60;;
4674;SDS011;2351;50.812;12.872;2022-09-14T06:11:20;19.17;;;7.40;;
4674;SDS011;2351;50.812;12.872;2022-09-14T06:13:53;9.27;;;7.07;;
4674;SDS011;2351;50.812;12.872;2022-09-14T06:16:26;9.30;;;6.43;;
4674;SDS011;2351;50.812;12.872;2022-09-14T06:18:58;8.50;;;5.97;;
4674;SDS011;2351;50.812;12.872;2022-09-14T06:21:32;10.33;;;7.30;;
4674;SDS011;2351;50.812;12.872;2022-09-14T06:24:05;12.40;;;7.20;;
4674;SDS011;2351;50.812;12.872;2022-09-14T06:26:36;11.20;;;6.13;;
4674;SDS011;2351;50.812;12.872;2022-09-14T06:29:08;13.37;;;7.30;;
4674;SDS011;2351;50.812;12.872;2022-09-14T06:31:39;9.03;;;5.07;;
4674;SDS011;2351;50.812;12.872;2022-09-14T06:34:11;10.43;;;6.17;;
4674;SDS011;2351;50.812;12.872;2022-09-14T06:36:44;10.50;;;7.27;;
4674;SDS011;2351;50.812;12.872;2022-09-14T06:39:15;10.30;;;6.63;;
4674;SDS011;2351;50.812;12.872;2022-09-14T06:41:47;12.67;;;6.83;;
4674;SDS011;2351;50.812;12.872;2022-09-14T06:44:20;10.23;;;6.20;;
4674;SDS011;2351;50.812;12.872;2022-09-14T06:46:52;14.30;;;7.47;;
4674;SDS011;2351;50.812;12.872;2022-09-14T06:49:24;9.70;;;6.33;;
4674;SDS011;2351;50.812;12.872;2022-09-14T06:51:56;14.53;;;7.57;;
4674;SDS011;2351;50.812;12.872;2022-09-14T06:54:29;8.90;;;6.60;;
4674;SDS011;2351;50.812;12.872;2022-09-14T06:57:01;9.73;;;6.10;;
4674;SDS011;2351;50.812;12.872;2022-09-14T06:59:32;11.20;;;7.37;;
4674;SDS011;2351;50.812;12.872;2022-09-14T07:02:04;15.20;;;5.97;;
4674;SDS011;2351;50.812;12.872;2022-09-14T07:04:35;11.17;;;7.03;;
4674;SDS011;2351;50.812;12.872;2022-09-14T07:07:08;10.90;;;6.37;;
4674;SDS011;2351;50.812;12.872;2022-09-14T07:09:40;13.50;;;7.03;;
4674;SDS011;2351;50.812;12.872;2022-09-14T07:12:11;9.93;;;7.40;;
4674;SDS011;2351;50.812;12.872;2022-09-14T07:14:43;11.17;;;6.90;;
4674;SDS011;2351;50.812;12.872;2022-09-14T07:17:15;15.27;;;8.17;;
4674;SDS011;2351;50.812;12.872;2022-09-14T07:19:47;9.60;;;7.00;;
4674;SDS011;2351;50.812;12.872;2022-09-14T07:22:20;16.77;;;8.70;;
4674;SDS011;2351;50.812;12.872;2022-09-14T07:24:51;11.20;;;7.70;;
4674;SDS011;2351;50.812;12.872;2022-09-14T07:27:23;12.10;;;7.77;;
4674;SDS011;2351;50.812;12.872;2022-09-14T07:29:54;9.50;;;6.40;;
4674;SDS011;2351;50.812;12.872;2022-09-14T07:32:26;9.80;;;6.07;;
4674;SDS011;2351;50.812;12.872;2022-09-14T07:34:58;9.20;;;6.77;;
4674;SDS011;2351;50.812;12.872;2022-09-14T07:37:31;7.60;;;6.10;;
4674;SDS011;2351;50.812;12.872;2022-09-14T07:40:03;9.27;;;5.70;;
4674;SDS011;2351;50.812;12.872;2022-09-14T07:42:35;7.30;;;5.37;;
4674;SDS011;2351;50.812;12.872;2022-09-14T07:45:07;11.20;;;7.43;;
4674;SDS011;2351;50.812;12.872;2022-09-14T07:47:39;13.10;;;8.37;;
4674;SDS011;2351;50.812;12.872;2022-09-14T07:50:10;11.70;;;6.90;;
4674;SDS011;2351;50.812;12.872;2022-09-14T07:52:43;10.47;;;6.20;;
4674;SDS011;2351;50.812;12.872;2022-09-14T07:55:15;9.83;;;5.83;;
4674;SDS011;2351;50.812;12.872;2022-09-14T07:57:47;13.33;;;7.33;;
4674;SDS011;2351;50.812;12.872;2022-09-14T08:00:18;11.90;;;6.97;;
4674;SDS011;2351;50.812;12.872;2022-09-14T08:02:51;13.70;;;8.23;;
4674;SDS011;2351;50.812;12.872;2022-09-14T08:05:24;12.70;;;6.33;;
4674;SDS011;2351;50.812;12.872;2022-09-14T08:07:57;13.53;;;7.60;;
4674;SDS011;2351;50.812;12.872;2022-09-14T08:10:29;16.40;;;7.20;;
4674;SDS011;2351;50.812;12.872;2022-09-14T08:13:00;10.30;;;7.93;;
4674;SDS011;2351;50.812;12.872;2022-09-14T08:15:33;9.27;;;6.60;;
4674;SDS011;2351;50.812;12.872;2022-09-14T08:18:04;11.97;;;6.87;;
4674;SDS011;2351;50.812;12.872;2022-09-14T08:20:36;15.80;;;8.13;;
4674;SDS011;2351;50.812;12.872;2022-09-14T08:23:09;10.87;;;7.20;;
4674;SDS011;2351;50.812;12.872;2022-09-14T08:25:41;10.40;;;7.33;;
4674;SDS011;2351;50.812;12.872;2022-09-14T08:28:13;14.43;;;7.23;;
4674;SDS011;2351;50.812;12.872;2022-09-14T08:30:44;12.33;;;6.73;;
4674;SDS011;2351;50.812;12.872;2022-09-14T08:33:16;15.53;;;7.20;;
4674;SDS011;2351;50.812;12.872;2022-09-14T08:35:47;12.00;;;6.30;;
4674;SDS011;2351;50.812;12.872;2022-09-14T08:38:20;12.40;;;7.57;;
4674;SDS011;2351;50.812;12.872;2022-09-14T08:40:53;11.47;;;7.33;;
4674;SDS011;2351;50.812;12.872;2022-09-14T08:43:25;9.83;;;7.10;;
4674;SDS011;2351;50.812;12.872;2022-09-14T08:45:59;10.30;;;6.87;;
4674;SDS011;2351;50.812;12.872;2022-09-14T08:48:34;17.67;;;8.00;;
4674;SDS011;2351;50.812;12.872;2022-09-14T08:51:10;12.50;;;8.37;;
4674;SDS011;2351;50.812;12.872;2022-09-14T08:53:43;16.00;;;8.67;;
4674;SDS011;2351;50.812;12.872;2022-09-14T08:56:16;9.00;;;6.43;;
4674;SDS011;2351;50.812;12.872;2022-09-14T08:58:54;14.33;;;6.90;;
4674;SDS011;2351;50.812;12.872;2022-09-14T09:01:42;7.50;;;5.97;;
4674;SDS011;2351;50.812;12.872;2022-09-14T09:04:23;10.33;;;6.73;;
4674;SDS011;2351;50.812;12.872;2022-09-14T09:07:07;11.50;;;6.30;;
4674;SDS011;2351;50.812;12.872;2022-09-14T09:09:45;8.50;;;5.27;;
4674;SDS011;2351;50.812;12.872;2022-09-14T09:12:20;8.93;;;5.77;;
4674;SDS011;2351;50.812;12.872;2022-09-14T09:14:54;11.87;;;5.60;;
4674;SDS011;2351;50.812;12.872;2022-09-14T09:17:30;8.00;;;5.10;;
4674;SDS011;2351;50.812;12.872;2022-09-14T09:20:08;6.80;;;5.40;;
4674;SDS011;2351;50.812;12.872;2022-09-14T09:22:45;5.87;;;4.27;;
4674;SDS011;2351;50.812;12.872;2022-09-14T09:25:22;5.60;;;4.07;;
4674;SDS011;2351;50.812;12.872;2022-09-14T09:27:59;7.67;;;4.67;;
4674;SDS011;2351;50.812;12.872;2022-09-14T09:30:33;4.27;;;3.73;;
4674;SDS011;2351;50.812;12.872;2022-09-14T09:33:04;4.87;;;4.00;;
4674;SDS011;2351;50.812;12.872;2022-09-14T09:35:36;5.47;;;4.00;;
4674;SDS011;2351;50.812;12.872;2022-09-14T09:38:12;4.57;;;4.10;;
4674;SDS011;2351;50.812;12.872;2022-09-14T09:40:48;3.10;;;2.80;;
4674;SDS011;2351;50.812;12.872;2022-09-14T09:43:22;2.33;;;2.10;;
4674;SDS011;2351;50.812;12.872;2022-09-14T09:45:54;3.20;;;2.70;;
4674;SDS011;2351;50.812;12.872;2022-09-14T09:48:28;3.70;;;2.60;;
4674;SDS011;2351;50.812;12.872;2022-09-14T09:51:05;2.90;;;2.70;;
4674;SDS011;2351;50.812;12.872;2022-09-14T09:53:44;5.03;;;2.50;;
4674;SDS011;2351;50.812;12.872;2022-09-14T09:56:20;7.93;;;1.80;;
4674;SDS011;2351;50.812;12.872;2022-09-14T09:58:53;2.43;;;1.90;;
4674;SDS011;2351;50.812;12.872;2022-09-14T10:01:26;2.90;;;2.50;;
4674;SDS011;2351;50.812;12.872;2022-09-14T10:04:00;1.77;;;1.67;;
4674;SDS011;2351;50.812;12.872;2022-09-14T10:06:39;1.90;;;1.70;;
4674;SDS011;2351;50.812;12.872;2022-09-14T10:09:13;2.97;;;2.27;;
4674;SDS011;2351;50.812;12.872;2022-09-14T10:11:55;2.30;;;2.10;;
4674;SDS011;2351;50.812;12.872;2022-09-14T10:14:29;1.90;;;1.80;;
4674;SDS011;2351;50.812;12.872;2022-09-14T10:17:03;2.00;;;1.90;;
4674;SDS011;2351;50.812;12.872;2022-09-14T10:19:37;1.60;;;1.50;;
4674;SDS011;2351;50.812;12.872;2022-09-14T10:22:16;1.73;;;1.50;;
4674;SDS011;2351;50.812;12.872;2022-09-14T10:24:53;2.33;;;2.10;;
4674;SDS011;2351;50.812;12.872;2022-09-14T10:27:33;1.50;;;1.40;;
4674;SDS011;2351;50.812;12.872;2022-09-14T10:30:11;2.97;;;2.00;;
4674;SDS011;2351;50.812;12.872;2022-09-14T10:32:55;2.83;;;1.67;;
4674;SDS011;2351;50.812;12.872;2022-09-14T10:35:40;2.00;;;1.80;;
4674;SDS011;2351;50.812;12.872;2022-09-14T10:38:22;2.20;;;2.00;;
4674;SDS011;2351;50.812;12.872;2022-09-14T10:41:05;2.30;;;1.77;;
4674;SDS011;2351;50.812;12.872;2022-09-14T10:43:52;1.60;;;1.50;;
4674;SDS011;2351;50.812;12.872;2022-09-14T10:46:36;1.90;;;1.70;;
4674;SDS011;2351;50.812;12.872;2022-09-14T10:49:17;5.33;;;1.90;;
4674;SDS011;2351;50.812;12.872;2022-09-14T10:52:02;1.50;;;1.40;;
4674;SDS011;2351;50.812;12.872;2022-09-14T10:54:56;1.77;;;1.67;;
4674;SDS011;2351;50.812;12.872;2022-09-14T10:57:41;1.77;;;1.67;;
4674;SDS011;2351;50.812;12.872;2022-09-14T11:00:22;2.00;;;1.90;;
4674;SDS011;2351;50.812;12.872;2022-09-14T11:02:57;2.23;;;2.03;;
4674;SDS011;2351;50.812;12.872;2022-09-14T11:05:42;2.00;;;1.83;;
4674;SDS011;2351;50.812;12.872;2022-09-14T11:08:18;3.00;;;2.57;;
4674;SDS011;2351;50.812;12.872;2022-09-14T11:11:01;2.83;;;1.83;;
4674;SDS011;2351;50.812;12.872;2022-09-14T11:13:51;1.73;;;1.50;;
4674;SDS011;2351;50.812;12.872;2022-09-14T11:16:49;3.43;;;2.10;;
4674;SDS011;2351;50.812;12.872;2022-09-14T11:19:30;2.40;;;2.10;;
4674;SDS011;2351;50.812;12.872;2022-09-14T11:22:10;4.17;;;1.93;;
4674;SDS011;2351;50.812;12.872;2022-09-14T11:24:47;1.67;;;1.57;;
4674;SDS011;2351;50.812;12.872;2022-09-14T11:27:24;3.43;;;1.60;;
4674;SDS011;2351;50.812;12.872;2022-09-14T11:30:02;2.40;;;1.67;;
4674;SDS011;2351;50.812;12.872;2022-09-14T11:32:41;8.13;;;1.70;;
4674;SDS011;2351;50.812;12.872;2022-09-14T11:35:17;1.20;;;1.20;;
4674;SDS011;2351;50.812;12.872;2022-09-14T11:37:54;1.73;;;1.50;;
4674;SDS011;2351;50.812;12.872;2022-09-14T11:40:31;1.70;;;1.60;;
4674;SDS011;2351;50.812;12.872;2022-09-14T11:43:08;1.10;;;1.00;;
4674;SDS011;2351;50.812;12.872;2022-09-14T11:45:44;1.33;;;1.30;;
4674;SDS011;2351;50.812;12.872;2022-09-14T11:48:21;1.57;;;1.47;;
4674;SDS011;2351;50.812;12.872;2022-09-14T11:50:59;2.50;;;1.70;;
4674;SDS011;2351;50.812;12.872;2022-09-14T11:53:34;1.97;;;1.47;;
4674;SDS011;2351;50.812;12.872;2022-09-14T11:56:11;3.27;;;1.70;;
4674;SDS011;2351;50.812;12.872;2022-09-14T11:58:54;1.40;;;1.30;;
4674;SDS011;2351;50.812;12.872;2022-09-14T12:01:30;1.57;;;1.47;;
4674;SDS011;2351;50.812;12.872;2022-09-14T12:04:09;2.77;;;1.70;;
4674;SDS011;2351;50.812;12.872;2022-09-14T12:06:44;2.40;;;2.20;;
4674;SDS011;2351;50.812;12.872;2022-09-14T12:09:39;1.70;;;1.60;;
4674;SDS011;2351;50.812;12.872;2022-09-14T12:15:16;2.80;;;2.30;;
4674;SDS011;2351;50.812;12.872;2022-09-14T12:17:52;2.03;;;1.93;;
4674;SDS011;2351;50.812;12.872;2022-09-14T12:20:47;2.70;;;2.50;;
4674;SDS011;2351;50.812;12.872;2022-09-14T12:23:31;2.30;;;2.10;;
4674;SDS011;2351;50.812;12.872;2022-09-14T12:29:25;2.60;;;1.90;;
4674;SDS011;2351;50.812;12.872;2022-09-14T12:32:03;2.70;;;2.50;;
4674;SDS011;2351;50.812;12.872;2022-09-14T12:44:29;4.50;;;3.20;;
4674;SDS011;2351;50.812;12.872;2022-09-14T12:50:29;3.37;;;2.80;;
4674;SDS011;2351;50.812;12.872;2022-09-14T12:53:10;7.13;;;2.90;;
4674;SDS011;2351;50.812;12.872;2022-09-14T12:55:53;4.70;;;2.87;;
4674;SDS011;2351;50.812;12.872;2022-09-14T12:58:35;3.87;;;2.90;;
4674;SDS011;2351;50.812;12.872;2022-09-14T13:01:32;3.20;;;2.90;;
4674;SDS011;2351;50.812;12.872;2022-09-14T13:04:11;3.47;;;2.80;;
4674;SDS011;2351;50.812;12.872;2022-09-14T13:06:45;4.60;;;3.30;;
4674;SDS011;2351;50.812;12.872;2022-09-14T13:09:18;6.47;;;3.37;;
4674;SDS011;2351;50.812;12.872;2022-09-14T13:11:53;4.90;;;3.90;;
4674;SDS011;2351;50.812;12.872;2022-09-14T13:14:27;6.03;;;3.10;;
4674;SDS011;2351;50.812;12.872;2022-09-14T13:17:03;3.57;;;3.23;;
4674;SDS011;2351;50.812;12.872;2022-09-14T13:19:36;2.83;;;2.63;;
4674;SDS011;2351;50.812;12.872;2022-09-14T13:22:15;5.70;;;4.20;;
4674;SDS011;2351;50.812;12.872;2022-09-14T13:24:48;4.23;;;3.80;;
4674;SDS011;2351;50.812;12.872;2022-09-14T13:27:21;5.20;;;3.90;;
4674;SDS011;2351;50.812;12.872;2022-09-14T13:29:56;3.47;;;3.17;;
4674;SDS011;2351;50.812;12.872;2022-09-14T13:32:33;4.37;;;3.50;;
4674;SDS011;2351;50.812;12.872;2022-09-14T13:35:14;5.23;;;3.40;;
4674;SDS011;2351;50.812;12.872;2022-09-14T13:37:47;4.00;;;3.57;;
4674;SDS011;2351;50.812;12.872;2022-09-14T13:40:21;6.97;;;3.50;;
4674;SDS011;2351;50.812;12.872;2022-09-14T13:42:54;4.20;;;3.53;;
4674;SDS011;2351;50.812;12.872;2022-09-14T13:45:26;4.60;;;3.50;;
4674;SDS011;2351;50.812;12.872;2022-09-14T13:47:59;4.00;;;3.20;;
4674;SDS011;2351;50.812;12.872;2022-09-14T13:50:32;3.80;;;3.40;;
4674;SDS011;2351;50.812;12.872;2022-09-14T13:53:04;5.80;;;3.57;;
4674;SDS011;2351;50.812;12.872;2022-09-14T13:55:42;4.23;;;3.30;;
4674;SDS011;2351;50.812;12.872;2022-09-14T13:58:19;4.00;;;3.17;;
4674;SDS011;2351;50.812;12.872;2022-09-14T14:00:53;3.43;;;3.13;;
4674;SDS011;2351;50.812;12.872;2022-09-14T14:03:30;3.10;;;2.87;;
4674;SDS011;2351;50.812;12.872;2022-09-14T14:06:16;3.80;;;3.17;;
4674;SDS011;2351;50.812;12.872;2022-09-14T14:08:56;4.20;;;3.57;;
4674;SDS011;2351;50.812;12.872;2022-09-14T14:11:32;5.37;;;3.60;;
4674;SDS011;2351;50.812;12.872;2022-09-14T14:14:09;4.47;;;4.03;;
4674;SDS011;2351;50.812;12.872;2022-09-14T14:19:55;3.67;;;3.37;;
4674;SDS011;2351;50.812;12.872;2022-09-14T14:22:31;4.70;;;3.67;;
4674;SDS011;2351;50.812;12.872;2022-09-14T14:25:16;5.83;;;3.97;;
4674;SDS011;2351;50.812;12.872;2022-09-14T14:27:49;5.80;;;4.80;;
4674;SDS011;2351;50.812;12.872;2022-09-14T14:30:29;5.53;;;4.03;;
4674;SDS011;2351;50.812;12.872;2022-09-14T14:33:03;9.13;;;4.30;;
4674;SDS011;2351;50.812;12.872;2022-09-14T14:35:39;3.13;;;2.83;;
4674;SDS011;2351;50.812;12.872;2022-09-14T14:38:10;3.90;;;3.23;;
4674;SDS011;2351;50.812;12.872;2022-09-14T14:40:42;5.67;;;3.60;;
4674;SDS011;2351;50.812;12.872;2022-09-14T14:43:16;5.53;;;3.63;;
4674;SDS011;2351;50.812;12.872;2022-09-14T14:45:50;5.53;;;3.27;;
4674;SDS011;2351;50.812;12.872;2022-09-14T14:48:26;4.70;;;3.50;;
4674;SDS011;2351;50.812;12.872;2022-09-14T14:51:00;4.60;;;4.20;;
4674;SDS011;2351;50.812;12.872;2022-09-14T14:53:31;4.97;;;3.63;;
4674;SDS011;2351;50.812;12.872;2022-09-14T14:56:03;3.53;;;3.13;;
4674;SDS011;2351;50.812;12.872;2022-09-14T14:58:40;7.00;;;4.10;;
4674;SDS011;2351;50.812;12.872;2022-09-14T15:01:12;7.63;;;4.60;;
4674;SDS011;2351;50.812;12.872;2022-09-14T15:03:45;8.13;;;5.20;;
4674;SDS011;2351;50.812;12.872;2022-09-14T15:06:19;7.90;;;5.70;;
4674;SDS011;2351;50.812;12.872;2022-09-14T15:08:53;9.87;;;5.57;;
4674;SDS011;2351;50.812;12.872;2022-09-14T15:11:26;7.63;;;4.60;;
4674;SDS011;2351;50.812;12.872;2022-09-14T15:13:57;7.80;;;5.23;;
4674;SDS011;2351;50.812;12.872;2022-09-14T15:16:29;10.10;;;5.20;;
4674;SDS011;2351;50.812;12.872;2022-09-14T15:19:01;6.43;;;4.50;;
4674;SDS011;2351;50.812;12.872;2022-09-14T15:21:34;5.20;;;4.33;;
4674;SDS011;2351;50.812;12.872;2022-09-14T15:24:06;6.13;;;5.03;;
4674;SDS011;2351;50.812;12.872;2022-09-14T15:26:38;8.90;;;4.90;;
4674;SDS011;2351;50.812;12.872;2022-09-14T15:29:11;5.63;;;4.67;;
4674;SDS011;2351;50.812;12.872;2022-09-14T15:31:43;7.70;;;5.73;;
4674;SDS011;2351;50.812;12.872;2022-09-14T15:34:18;7.73;;;5.63;;
4674;SDS011;2351;50.812;12.872;2022-09-14T15:36:54;5.50;;;4.53;;
4674;SDS011;2351;50.812;12.872;2022-09-14T15:39:28;7.80;;;5.40;;
4674;SDS011;2351;50.812;12.872;2022-09-14T15:42:00;9.57;;;5.57;;
4674;SDS011;2351;50.812;12.872;2022-09-14T15:44:32;10.73;;;6.13;;
4674;SDS011;2351;50.812;12.872;2022-09-14T15:47:04;5.83;;;5.00;;
4674;SDS011;2351;50.812;12.872;2022-09-14T15:49:35;8.60;;;6.37;;
4674;SDS011;2351;50.812;12.872;2022-09-14T15:52:09;8.33;;;4.87;;
4674;SDS011;2351;50.812;12.872;2022-09-14T15:54:41;8.50;;;5.80;;
4674;SDS011;2351;50.812;12.872;2022-09-14T15:57:13;7.37;;;5.30;;
4674;SDS011;2351;50.812;12.872;2022-09-14T15:59:44;6.20;;;5.33;;
4674;SDS011;2351;50.812;12.872;2022-09-14T16:02:16;7.50;;;4.80;;
4674;SDS011;2351;50.812;12.872;2022-09-14T16:04:49;6.20;;;4.67;;
4674;SDS011;2351;50.812;12.872;2022-09-14T16:07:22;6.07;;;5.47;;
4674;SDS011;2351;50.812;12.872;2022-09-14T16:09:53;8.40;;;4.93;;